Hovedside
METAR-TAF:

METAR-TAF

Lufthavner :

Kulusuk lufthavn

Kulusuk, Grønland

breddegrad: 65-35N, lengdegrad: 037-09W, høyde over havet: 35 m

Gjeldene værobservasjon

Denne rapporten ble laget for 49 minutter siden, klokken 11:50 UTC
Vind 3 kt fra Vest-sørvest
Temperatur -12°C
Luftfuktighet 56%
Trykk 998 hPa
Sikt 10 km eller mer

METAR: BGKK 241150Z AUTO 24003KT 9999NDV NCD M12/M19 Q0998

Tid: 09:39 (12:39 UTC)


TAF: fraværende

Værobservasjoner og værvarsel for over 4000 flyplasser (METAR- og TAF-rapporter).

Tilgjengelige stasjoner er representert av de røde og gule prikkene på kartet.

Hold musepekeren over prikken for å se navnet på stasjonen.

Klikk så for å se værobservasjoner og -varsler.

For å forandre kartet kan du klikke på den grønne knappen med svart kryss for å zoome inn, på den grønne knappen med strek for å zoome ut, eller på de grønne pilene for å se tilstøtende kart.


METAR-TAF: